Time;durP1;ratioP1;P1;durP2;ratioP2;P2;SDS_P1;SDS_P2;PMS_P1;PMS_P2;Temp;Humidity;BMP_temperature;BMP_pressure;BME280_temperature;BME280_humidity;BME280_pressure;Samples;Min_cycle;Max_cycle;Signal;HPM_P1;HPM_P2
2022/11/03 00:02:08;;;;;;;7.67;1.40;;;10.70;99.90;;;;;;5053464;28;20226;-53
2022/11/03 00:04:35;;;;;;;6.77;2.00;;;10.70;1.00;;;;;;5053410;28;20209;-57
2022/11/03 00:07:02;;;;;;;12.00;2.10;;;10.70;8.90;;;;;;5053184;28;20202;-57
2022/11/03 00:09:31;;;;;;;9.73;2.13;;;10.70;1.00;;;;;;5053029;28;20205;-55
2022/11/03 00:11:58;;;;;;;10.17;2.10;;;10.70;99.90;;;;;;5053002;28;20225;-56
2022/11/03 00:14:24;;;;;;;8.37;1.93;;;10.80;99.90;;;;;;5053317;28;20205;-57
2022/11/03 00:16:51;;;;;;;8.57;2.10;;;10.80;99.90;;;;;;5053079;28;20226;-57
2022/11/03 00:19:18;;;;;;;6.60;2.17;;;10.90;1.00;;;;;;5053003;28;20213;-57
2022/11/03 00:21:45;;;;;;;6.93;1.47;;;10.80;1.00;;;;;;5052989;28;20642;-56
2022/11/03 00:24:13;;;;;;;8.27;1.63;;;10.90;1.00;;;;;;5052815;28;20214;-57
2022/11/03 00:26:40;;;;;;;4.20;1.60;;;10.90;1.00;;;;;;5052537;28;20634;-57
2022/11/03 00:29:09;;;;;;;9.20;2.07;;;10.90;47.30;;;;;;5052690;28;20206;-57
2022/11/03 00:31:37;;;;;;;13.40;1.93;;;10.90;99.90;;;;;;5052997;28;20230;-56
2022/11/03 00:34:05;;;;;;;7.13;1.80;;;10.90;99.90;;;;;;5052851;28;20623;-57
2022/11/03 00:36:35;;;;;;;10.17;2.07;;;10.90;99.90;;;;;;5052400;28;20205;-57
2022/11/03 00:39:03;;;;;;;12.17;2.33;;;11.00;99.90;;;;;;5052661;28;20217;-55
2022/11/03 00:41:32;;;;;;;10.27;2.47;;;10.90;99.90;;;;;;5052814;28;20283;-52
2022/11/03 00:43:59;;;;;;;9.70;2.00;;;10.90;1.00;;;;;;5052766;28;20209;-56
2022/11/03 00:46:26;;;;;;;9.33;2.67;;;11.00;1.00;;;;;;5052434;28;20210;-57
2022/11/03 00:48:53;;;;;;;9.03;2.37;;;11.00;1.00;;;;;;5052309;28;20292;-57
2022/11/03 00:51:23;;;;;;;7.07;3.57;;;11.00;1.00;;;;;;5052365;28;20221;-57
2022/11/03 00:53:51;;;;;;;9.87;1.90;;;11.00;1.00;;;;;;5052605;28;20209;-56
2022/11/03 00:56:21;;;;;;;10.73;2.60;;;11.00;1.00;;;;;;5052440;28;20210;-56
2022/11/03 00:58:50;;;;;;;4.60;1.83;;;11.00;1.00;;;;;;5052114;28;20316;-57
2022/11/03 01:01:20;;;;;;;8.53;2.27;;;11.00;95.00;;;;;;5052279;28;20237;-57
2022/11/03 01:06:49;;;;;;;10.43;1.93;;;11.00;99.90;;;;;;5051929;28;20263;-55
2022/11/03 01:09:16;;;;;;;14.03;2.30;;;10.90;99.90;;;;;;5052138;28;20259;-57
2022/11/03 01:11:50;;;;;;;9.43;2.13;;;10.90;1.00;;;;;;5052015;28;20255;-57
2022/11/03 01:14:17;;;;;;;13.03;2.33;;;10.90;99.90;;;;;;5051477;28;20209;-57
2022/11/03 01:16:44;;;;;;;7.13;2.13;;;10.90;1.00;;;;;;5051793;28;20214;-55
2022/11/03 01:19:11;;;;;;;8.07;2.60;;;10.90;1.00;;;;;;5052141;28;20209;-57
2022/11/03 01:21:38;;;;;;;11.03;2.27;;;10.90;1.00;;;;;;5051933;28;20604;-56
2022/11/03 01:24:05;;;;;;;10.07;2.53;;;10.90;1.00;;;;;;5051885;28;20209;-56
2022/11/03 01:26:32;;;;;;;6.87;1.90;;;10.90;1.00;;;;;;5051557;28;20616;-57
2022/11/03 01:29:00;;;;;;;8.37;2.30;;;10.90;1.00;;;;;;5051815;28;20206;-57
2022/11/03 01:31:29;;;;;;;8.90;2.40;;;10.90;1.00;;;;;;5051994;28;20236;-57
2022/11/03 01:33:56;;;;;;;9.73;2.20;;;10.90;1.00;;;;;;5051705;28;20300;-55
2022/11/03 01:36:24;;;;;;;7.83;2.70;;;10.90;1.00;;;;;;5051561;28;20681;-57
2022/11/03 01:38:50;;;;;;;6.70;2.10;;;10.80;29.00;;;;;;5051816;28;20229;-56
2022/11/03 01:41:19;;;;;;;11.67;2.20;;;10.90;82.60;;;;;;5051680;28;20226;-56
2022/11/03 01:43:49;;;;;;;6.70;2.03;;;10.80;95.00;;;;;;5051528;28;20206;-55
2022/11/03 01:46:20;;;;;;;11.00;2.10;;;10.80;99.90;;;;;;5051364;28;20209;-57
2022/11/03 01:48:51;;;;;;;8.30;2.33;;;10.80;99.90;;;;;;5051881;28;20279;-57
2022/11/03 01:51:22;;;;;;;5.13;2.00;;;10.80;99.90;;;;;;5051645;28;20230;-57
2022/11/03 01:53:51;;;;;;;8.57;2.10;;;10.70;99.90;;;;;;5051659;28;20205;-57
2022/11/03 01:56:19;;;;;;;8.83;2.40;;;10.80;99.90;;;;;;5051314;28;20201;-57
2022/11/03 01:58:49;;;;;;;10.13;2.07;;;10.80;99.90;;;;;;5051655;28;20659;-56
2022/11/03 02:01:16;;;;;;;7.53;2.50;;;10.70;99.90;;;;;;5051904;28;20731;-57
2022/11/03 02:03:47;;;;;;;7.07;2.10;;;10.70;99.90;;;;;;5051696;28;20645;-57
2022/11/03 02:06:15;;;;;;;7.23;2.23;;;10.70;1.00;;;;;;5051225;28;20205;-57
2022/11/03 02:08:48;;;;;;;7.07;1.93;;;10.70;1.00;;;;;;5051443;28;20202;-57
2022/11/03 02:13:59;;;;;;;9.07;2.37;;;10.60;1.00;;;;;;5051439;28;20679;-53
2022/11/03 02:16:29;;;;;;;8.90;2.07;;;10.60;1.00;;;;;;5051218;28;20213;-56
2022/11/03 02:18:57;;;;;;;5.57;1.77;;;10.50;1.00;;;;;;5051384;28;20225;-57
2022/11/03 02:21:29;;;;;;;9.20;1.97;;;10.50;1.00;;;;;;5051435;28;20232;-57
2022/11/03 02:24:03;;;;;;;13.13;2.40;;;10.40;1.00;;;;;;5051557;28;20224;-55
2022/11/03 02:26:31;;;;;;;10.03;2.30;;;10.40;1.00;;;;;;5052634;28;20226;-57
2022/11/03 02:28:58;;;;;;;7.60;2.63;;;10.40;1.00;;;;;;5055190;28;20250;-57
2022/11/03 02:31:30;;;;;;;10.43;2.17;;;10.40;7.60;;;;;;5054950;28;20777;-57
2022/11/03 02:34:00;;;;;;;8.07;2.60;;;10.50;14.30;;;;;;5054996;28;20275;-57
2022/11/03 02:36:31;;;;;;;7.10;2.27;;;10.40;22.40;;;;;;5054885;28;20709;-57
2022/11/03 02:39:01;;;;;;;12.53;2.03;;;10.40;31.20;;;;;;5054963;28;20237;-56
2022/11/03 02:41:33;;;;;;;5.83;1.73;;;10.40;34.10;;;;;;5054828;28;20229;-56
2022/11/03 02:44:01;;;;;;;5.33;2.07;;;10.40;39.50;;;;;;5054748;28;20205;-57
2022/11/03 02:46:30;;;;;;;6.47;1.97;;;10.40;41.50;;;;;;5054783;28;20212;-55
2022/11/03 02:48:57;;;;;;;6.00;1.90;;;10.40;49.60;;;;;;5054949;28;20205;-57
2022/11/03 02:51:23;;;;;;;9.53;2.07;;;10.40;50.80;;;;;;5054669;28;20316;-58
2022/11/03 02:54:02;;;;;;;8.37;2.23;;;10.40;54.60;;;;;;5054751;28;20628;-53
2022/11/03 02:56:34;;;;;;;8.57;2.20;;;10.40;57.60;;;;;;5054368;28;20270;-57
2022/11/03 02:59:03;;;;;;;10.17;2.23;;;10.40;64.00;;;;;;5054486;28;20282;-57
2022/11/03 03:01:35;;;;;;;7.50;1.60;;;10.30;77.00;;;;;;5054303;28;20283;-56
2022/11/03 03:04:06;;;;;;;10.77;2.17;;;10.30;82.30;;;;;;5054627;28;20223;-56
2022/11/03 03:06:37;;;;;;;9.07;2.20;;;10.40;85.90;;;;;;5054234;28;20209;-50
2022/11/03 03:09:07;;;;;;;8.80;2.47;;;10.40;90.60;;;;;;5054452;28;20267;-51
2022/11/03 03:11:40;;;;;;;9.20;2.00;;;10.40;91.00;;;;;;5054486;28;20248;-53
2022/11/03 03:14:11;;;;;;;7.63;2.30;;;10.40;91.80;;;;;;5054289;28;20672;-51
2022/11/03 03:16:45;;;;;;;6.07;2.13;;;10.30;95.50;;;;;;5056177;28;20244;-57
2022/11/03 03:19:21;;;;;;;8.87;2.70;;;10.30;97.10;;;;;;5054335;28;20295;-57
2022/11/03 03:21:52;;;;;;;8.77;2.27;;;10.30;98.90;;;;;;5054407;28;20323;-55
2022/11/03 03:24:26;;;;;;;6.17;1.87;;;10.30;99.90;;;;;;5055097;28;20205;-54
2022/11/03 03:26:58;;;;;;;6.40;1.67;;;10.30;99.90;;;;;;5054166;28;20213;-55
2022/11/03 03:29:28;;;;;;;5.53;2.13;;;10.30;99.90;;;;;;5054347;28;20215;-53
2022/11/03 03:31:57;;;;;;;10.53;2.60;;;10.30;99.90;;;;;;5054147;28;20233;-55
2022/11/03 03:34:26;;;;;;;10.70;2.20;;;10.30;99.90;;;;;;5054365;28;20209;-57
2022/11/03 03:36:56;;;;;;;9.37;2.23;;;10.40;99.90;;;;;;5053200;28;20677;-56
2022/11/03 03:39:26;;;;;;;5.80;2.03;;;10.40;99.90;;;;;;5053664;28;20233;-60
2022/11/03 03:41:56;;;;;;;7.60;2.37;;;10.40;99.90;;;;;;5053911;28;20236;-56
2022/11/03 03:44:24;;;;;;;5.43;1.93;;;10.40;99.90;;;;;;5053817;28;20205;-54
2022/11/03 03:46:56;;;;;;;5.60;1.93;;;10.50;99.90;;;;;;5053741;28;20213;-55
2022/11/03 03:49:23;;;;;;;9.60;1.87;;;10.50;99.50;;;;;;5053830;28;20202;-53
2022/11/03 03:51:50;;;;;;;10.40;2.90;;;10.40;99.90;;;;;;5053558;28;20644;-57
2022/11/03 03:54:17;;;;;;;9.90;2.77;;;10.50;99.90;;;;;;5053486;28;20676;-57
2022/11/03 03:56:52;;;;;;;12.53;2.23;;;10.50;99.90;;;;;;5053227;28;20672;-57
2022/11/03 03:59:20;;;;;;;7.17;2.10;;;10.50;99.40;;;;;;5053609;28;20286;-53
2022/11/03 04:01:46;;;;;;;5.50;1.93;;;10.50;97.80;;;;;;5053542;28;20228;-52
2022/11/03 04:04:13;;;;;;;5.93;2.10;;;10.50;99.60;;;;;;5053473;28;20255;-53
2022/11/03 04:06:40;;;;;;;5.13;1.80;;;10.40;99.90;;;;;;5053144;28;20209;-52
2022/11/03 04:09:06;;;;;;;4.77;1.90;;;10.40;99.90;;;;;;5053475;28;20231;-52
2022/11/03 04:22:33;;;;;;;6.63;1.90;;;10.50;99.90;;;;;;5052943;28;20237;-57
2022/11/03 04:25:00;;;;;;;6.90;1.93;;;10.50;99.90;;;;;;5053145;28;20220;-57
2022/11/03 04:27:30;;;;;;;8.37;2.40;;;10.40;99.90;;;;;;5052565;28;20221;-54
2022/11/03 04:30:06;;;;;;;9.37;2.33;;;10.50;99.90;;;;;;5052898;28;20209;-57
2022/11/03 04:32:34;;;;;;;6.93;2.10;;;10.50;99.90;;;;;;5053000;28;20290;-55
2022/11/03 04:35:01;;;;;;;7.03;1.93;;;10.50;99.90;;;;;;5053104;28;20610;-56
2022/11/03 04:37:28;;;;;;;4.80;1.93;;;10.50;99.90;;;;;;5052589;28;20730;-56
2022/11/03 04:40:00;;;;;;;7.57;2.10;;;10.60;99.90;;;;;;5053138;28;20217;-57
2022/11/03 04:42:29;;;;;;;6.53;1.93;;;10.60;99.90;;;;;;5052650;28;20321;-57
2022/11/03 04:44:58;;;;;;;8.40;2.07;;;10.70;99.90;;;;;;5052638;28;20210;-54
2022/11/03 04:47:27;;;;;;;7.70;2.70;;;10.60;99.90;;;;;;5052541;28;20260;-57
2022/11/03 04:49:55;;;;;;;10.03;2.07;;;10.60;99.90;;;;;;5051700;28;20209;-57
2022/11/03 04:52:22;;;;;;;7.10;2.00;;;10.60;99.90;;;;;;5052464;28;20225;-56
2022/11/03 04:54:52;;;;;;;5.07;1.80;;;10.70;99.90;;;;;;5052425;28;20564;-56
2022/11/03 04:57:18;;;;;;;6.67;1.90;;;10.70;99.90;;;;;;5051994;28;20214;-55
2022/11/03 04:59:47;;;;;;;10.93;2.47;;;10.70;99.90;;;;;;5052387;28;20232;-56
2022/11/03 05:02:17;;;;;;;7.93;1.87;;;10.70;99.90;;;;;;5052330;28;20245;-55
2022/11/03 05:04:43;;;;;;;7.80;2.07;;;10.70;99.90;;;;;;5052470;28;20350;-57
2022/11/03 05:07:23;;;;;;;7.70;2.13;;;10.80;99.90;;;;;;5051900;28;20730;-55
2022/11/03 05:09:50;;;;;;;5.57;1.97;;;10.80;99.90;;;;;;5052189;28;20753;-57
2022/11/03 05:12:18;;;;;;;7.83;1.80;;;10.80;99.90;;;;;;5052395;28;20290;-56
2022/11/03 05:14:45;;;;;;;8.97;2.30;;;10.80;99.90;;;;;;5052289;28;20209;-57
2022/11/03 05:17:21;;;;;;;8.47;2.30;;;10.80;99.90;;;;;;5052012;28;20206;-57
2022/11/03 05:19:48;;;;;;;10.80;2.63;;;10.90;99.90;;;;;;5052079;28;20224;-56
2022/11/03 05:22:19;;;;;;;8.30;2.17;;;10.90;99.90;;;;;;5051907;28;20644;-55
2022/11/03 05:24:46;;;;;;;7.37;2.30;;;10.90;99.90;;;;;;5052323;28;20581;-56
2022/11/03 05:27:20;;;;;;;6.47;2.47;;;10.90;99.90;;;;;;5051451;28;20256;-55
2022/11/03 05:29:48;;;;;;;13.47;5.23;;;10.90;99.90;;;;;;5052040;28;20240;-57
2022/11/03 05:32:19;;;;;;;12.63;2.70;;;11.00;99.90;;;;;;5051746;28;20226;-55
2022/11/03 05:34:47;;;;;;;7.93;2.10;;;11.00;99.90;;;;;;5051830;28;20587;-55
2022/11/03 05:37:24;;;;;;;8.10;2.50;;;11.00;99.90;;;;;;5051415;28;20209;-55
2022/11/03 05:39:53;;;;;;;7.73;2.20;;;11.00;99.90;;;;;;5051893;28;20225;-57
2022/11/03 05:42:28;;;;;;;11.27;2.20;;;11.10;99.90;;;;;;5051715;28;20581;-54
2022/11/03 05:44:55;;;;;;;6.40;1.70;;;11.10;99.90;;;;;;5051831;28;20815;-56
2022/11/03 05:47:24;;;;;;;7.40;1.70;;;11.00;99.90;;;;;;5051426;28;20209;-56
2022/11/03 05:49:54;;;;;;;7.53;2.00;;;11.00;99.90;;;;;;5051792;28;20628;-57
2022/11/03 05:52:25;;;;;;;5.47;1.73;;;11.00;99.90;;;;;;5051537;28;20229;-55
2022/11/03 05:54:53;;;;;;;12.17;3.27;;;11.10;97.10;;;;;;5057146;28;20276;-59
2022/11/03 05:57:20;;;;;;;8.87;1.93;;;11.20;96.40;;;;;;5070001;28;20721;-59
2022/11/03 05:59:51;;;;;;;5.90;1.90;;;11.20;95.50;;;;;;5071496;28;20655;-59
2022/11/03 06:02:32;;;;;;;7.63;1.80;;;11.20;93.50;;;;;;5075582;28;20228;-59
2022/11/03 06:04:59;;;;;;;6.90;2.27;;;11.20;92.60;;;;;;5075334;28;20205;-59
2022/11/03 06:07:31;;;;;;;10.03;2.07;;;11.20;91.50;;;;;;5075436;28;20209;-59
2022/11/03 06:09:58;;;;;;;8.83;2.17;;;11.20;82.20;;;;;;5075029;28;20247;-59
2022/11/03 06:12:26;;;;;;;7.20;2.00;;;11.30;80.00;;;;;;5075052;28;20586;-59
2022/11/03 06:14:59;;;;;;;9.03;2.37;;;11.30;78.80;;;;;;5075157;28;20266;-59
2022/11/03 06:17:28;;;;;;;10.90;2.70;;;11.30;79.10;;;;;;5075057;28;20832;-59
2022/11/03 06:19:57;;;;;;;9.93;2.10;;;11.30;74.30;;;;;;5074718;28;20236;-59
2022/11/03 06:22:28;;;;;;;10.80;2.33;;;11.40;73.50;;;;;;5075111;28;20659;-59
2022/11/03 06:24:58;;;;;;;9.53;2.50;;;11.40;73.40;;;;;;5074654;28;20212;-58
2022/11/03 06:27:30;;;;;;;8.57;2.30;;;11.30;76.10;;;;;;5074418;28;20212;-58
2022/11/03 06:30:01;;;;;;;6.73;1.67;;;11.30;74.30;;;;;;5074618;28;20205;-61
2022/11/03 06:32:28;;;;;;;12.30;2.40;;;11.20;76.50;;;;;;5075119;28;20603;-59
2022/11/03 06:34:57;;;;;;;7.10;1.70;;;11.20;78.30;;;;;;5074430;28;20209;-61
2022/11/03 06:37:30;;;;;;;6.77;2.13;;;11.20;75.80;;;;;;5074542;28;20278;-57
2022/11/03 06:40:00;;;;;;;7.57;2.20;;;11.20;78.50;;;;;;5074529;28;20776;-61
2022/11/03 06:42:31;;;;;;;7.43;1.90;;;11.20;73.10;;;;;;5074303;28;20286;-61
2022/11/03 06:44:57;;;;;;;8.87;1.90;;;11.30;65.60;;;;;;5074710;28;20266;-59
2022/11/03 06:47:25;;;;;;;8.87;2.40;;;11.30;65.30;;;;;;5073907;28;20227;-61
2022/11/03 06:49:55;;;;;;;5.73;1.70;;;11.30;65.00;;;;;;5074232;28;20278;-55
2022/11/03 06:52:28;;;;;;;6.50;2.10;;;11.30;67.20;;;;;;5074061;28;20229;-60
2022/11/03 06:55:01;;;;;;;6.47;2.17;;;11.30;72.30;;;;;;5074465;28;20303;-61
2022/11/03 06:57:32;;;;;;;6.90;2.07;;;11.30;67.90;;;;;;5065316;28;20213;-61
2022/11/03 06:59:58;;;;;;;9.67;2.33;;;11.30;64.80;;;;;;5070143;28;20225;-61
2022/11/03 07:02:46;;;;;;;9.73;2.10;;;11.40;64.50;;;;;;5073146;28;20255;-61
2022/11/03 07:05:21;;;;;;;9.87;1.90;;;11.30;64.50;;;;;;5073755;28;20207;-62
2022/11/03 07:07:49;;;;;;;11.60;2.00;;;11.40;57.60;;;;;;5072862;28;20292;-60
2022/11/03 07:10:16;;;;;;;8.13;2.17;;;11.40;59.70;;;;;;5073857;28;20231;-60
2022/11/03 07:12:43;;;;;;;8.33;1.80;;;11.40;64.20;;;;;;5072672;28;20259;-60
2022/11/03 07:15:22;;;;;;;9.50;2.30;;;11.40;57.20;;;;;;5073324;28;20201;-57
2022/11/03 07:17:49;;;;;;;10.70;2.50;;;11.50;53.30;;;;;;5073297;28;20741;-60
2022/11/03 07:20:16;;;;;;;6.70;2.00;;;11.50;49.70;;;;;;5073018;28;20711;-59
2022/11/03 07:22:43;;;;;;;6.53;2.10;;;11.60;48.80;;;;;;5073379;28;20229;-57
2022/11/03 07:25:17;;;;;;;6.90;2.30;;;11.60;45.60;;;;;;5071518;28;20251;-61
2022/11/03 07:27:44;;;;;;;7.90;2.17;;;11.60;40.20;;;;;;5072986;28;20216;-61
2022/11/03 07:30:18;;;;;;;6.47;2.00;;;11.70;39.40;;;;;;5073144;28;20216;-60
2022/11/03 07:32:45;;;;;;;7.90;1.93;;;11.70;42.10;;;;;;5073310;28;20745;-60
2022/11/03 07:35:32;;;;;;;4.93;1.90;;;11.70;41.30;;;;;;5073105;28;20205;-63
2022/11/03 07:38:03;;;;;;;6.53;2.00;;;11.70;36.80;;;;;;5072850;28;20690;-61
2022/11/03 07:40:33;;;;;;;5.43;2.50;;;11.70;36.60;;;;;;5073785;28;20232;-60
2022/11/03 07:43:11;;;;;;;7.00;1.87;;;11.70;31.20;;;;;;5073667;28;20239;-62
2022/11/03 07:45:39;;;;;;;10.47;1.90;;;11.80;31.70;;;;;;5073668;28;20253;-56
2022/11/03 07:48:18;;;;;;;2.07;1.33;;;11.80;34.90;;;;;;5072139;28;20704;-63
2022/11/03 07:50:45;;;;;;;4.83;2.03;;;11.90;20.00;;;;;;5073277;28;20287;-59
2022/11/03 07:53:16;;;;;;;5.47;1.80;;;11.90;26.90;;;;;;5072756;28;20212;-62
2022/11/03 07:55:45;;;;;;;5.47;1.87;;;11.90;23.00;;;;;;5072995;28;20267;-59
2022/11/03 07:58:22;;;;;;;9.17;1.80;;;11.90;17.60;;;;;;5063799;28;20209;-61
2022/11/03 08:00:49;;;;;;;9.37;1.90;;;12.00;11.00;;;;;;5052940;28;20326;-61
2022/11/03 08:03:26;;;;;;;6.30;1.90;;;12.00;8.40;;;;;;5049911;28;20880;-62
2022/11/03 08:05:52;;;;;;;6.83;2.20;;;12.10;1.90;;;;;;5066782;28;20201;-62
2022/11/03 08:08:19;;;;;;;7.03;2.30;;;12.30;1.00;;;;;;5072250;28;20216;-62
2022/11/03 08:10:47;;;;;;;9.50;2.10;;;12.40;1.00;;;;;;5072451;28;20209;-62
2022/11/03 08:13:14;;;;;;;5.97;1.90;;;12.40;1.00;;;;;;5072412;28;20214;-62
2022/11/03 08:15:40;;;;;;;3.73;1.57;;;12.50;1.00;;;;;;5071958;28;20214;-61
2022/11/03 08:18:07;;;;;;;8.03;2.00;;;12.60;1.00;;;;;;5072033;28;20219;-63
2022/11/03 08:20:33;;;;;;;6.47;1.73;;;12.60;1.00;;;;;;5071892;28;20231;-60
2022/11/03 08:23:00;;;;;;;6.50;2.13;;;12.80;1.00;;;;;;5072461;28;20237;-59
2022/11/03 08:25:27;;;;;;;4.83;1.60;;;12.80;1.00;;;;;;5071864;28;20214;-61
2022/11/03 08:27:55;;;;;;;10.20;2.00;;;12.80;1.00;;;;;;5071267;28;20216;-61
2022/11/03 08:30:22;;;;;;;7.87;2.33;;;12.80;1.00;;;;;;5072099;28;20208;-60
2022/11/03 08:32:48;;;;;;;9.27;2.40;;;12.80;1.00;;;;;;5071923;28;20231;-61
2022/11/03 08:35:15;;;;;;;4.23;1.60;;;12.90;1.00;;;;;;5072164;28;20201;-60
2022/11/03 08:37:42;;;;;;;8.97;2.30;;;12.90;1.00;;;;;;5071289;28;20214;-60
2022/11/03 08:40:10;;;;;;;6.27;1.90;;;12.90;1.00;;;;;;5071604;28;20604;-59
2022/11/03 08:42:36;;;;;;;5.73;2.13;;;12.90;1.00;;;;;;5070997;28;20289;-60
2022/11/03 08:45:06;;;;;;;5.73;1.83;;;12.90;1.00;;;;;;5072152;28;20235;-59
2022/11/03 08:47:32;;;;;;;13.23;2.17;;;13.00;1.00;;;;;;5071273;28;20212;-59
2022/11/03 08:49:59;;;;;;;5.50;1.80;;;13.00;1.00;;;;;;5071635;28;20212;-58
2022/11/03 08:52:26;;;;;;;5.90;1.83;;;13.00;1.00;;;;;;5071718;28;20313;-61
2022/11/03 08:54:53;;;;;;;7.83;1.97;;;13.10;1.00;;;;;;5071084;28;20205;-60
2022/11/03 08:57:20;;;;;;;6.57;1.83;;;13.20;1.00;;;;;;5071600;28;20205;-61
2022/11/03 08:59:46;;;;;;;8.23;1.97;;;13.20;1.00;;;;;;5070853;28;20709;-63
2022/11/03 09:02:14;;;;;;;9.43;2.30;;;13.20;1.00;;;;;;5071548;28;20247;-55
2022/11/03 09:04:41;;;;;;;4.63;1.83;;;13.30;1.00;;;;;;5058215;28;20740;-62
2022/11/03 09:07:08;;;;;;;6.43;1.90;;;13.30;1.00;;;;;;5071089;28;20266;-60
2022/11/03 09:09:34;;;;;;;5.80;1.83;;;13.40;1.00;;;;;;5070872;28;20204;-63
2022/11/03 09:12:01;;;;;;;5.87;1.83;;;13.50;1.00;;;;;;5071592;28;20228;-56
2022/11/03 09:14:28;;;;;;;7.73;2.30;;;13.60;99.90;;;;;;5071546;28;20231;-59
2022/11/03 09:16:54;;;;;;;4.37;1.57;;;13.60;99.90;;;;;;5070988;28;20278;-59
2022/11/03 09:19:22;;;;;;;7.43;1.67;;;13.70;59.20;;;;;;5071075;28;20232;-60
2022/11/03 09:21:51;;;;;;;8.47;1.77;;;13.70;1.00;;;;;;5070812;28;20735;-64
2022/11/03 09:24:17;;;;;;;6.50;1.80;;;13.80;99.90;;;;;;5071499;28;20266;-62
2022/11/03 09:26:44;;;;;;;7.60;1.57;;;13.90;99.90;;;;;;5070646;28;20212;-62
2022/11/03 09:29:11;;;;;;;4.43;1.67;;;14.00;1.00;;;;;;5071185;28;20205;-63
2022/11/03 09:31:37;;;;;;;6.37;1.80;;;14.00;1.00;;;;;;5071290;28;20231;-63
2022/11/03 09:34:04;;;;;;;6.60;1.50;;;14.10;1.00;;;;;;5070751;28;20262;-63
2022/11/03 09:36:32;;;;;;;8.83;2.00;;;14.10;99.90;;;;;;5070568;28;20576;-68
2022/11/03 09:38:59;;;;;;;5.30;1.70;;;14.20;1.00;;;;;;5070515;28;20204;-61
2022/11/03 09:41:26;;;;;;;6.23;1.67;;;14.10;99.90;;;;;;5071138;28;20221;-66
2022/11/03 09:43:53;;;;;;;6.97;1.63;;;14.20;92.20;;;;;;5070779;28;20205;-62
2022/11/03 09:46:20;;;;;;;9.77;2.00;;;14.30;98.90;;;;;;5070958;28;20626;-62
2022/11/03 09:48:46;;;;;;;8.70;1.60;;;14.30;99.90;;;;;;5070276;28;20209;-63
2022/11/03 09:51:17;;;;;;;5.83;1.50;;;14.20;20.50;;;;;;5070926;28;20249;-63
2022/11/03 09:53:45;;;;;;;9.77;1.80;;;14.30;99.90;;;;;;5071022;28;20212;-60
2022/11/03 09:56:12;;;;;;;8.17;2.17;;;14.30;22.30;;;;;;5070544;28;20679;-63
2022/11/03 09:58:39;;;;;;;3.17;1.70;;;14.30;99.90;;;;;;5070850;28;20278;-65
2022/11/03 10:01:06;;;;;;;3.37;1.23;;;14.40;8.20;;;;;;5070298;28;20294;-64
2022/11/03 10:03:33;;;;;;;6.93;1.70;;;14.50;1.00;;;;;;5070864;28;20255;-64
2022/11/03 10:05:59;;;;;;;5.63;1.50;;;14.60;1.00;;;;;;5058470;28;20999;-64
2022/11/03 10:08:29;;;;;;;3.93;1.50;;;14.50;99.90;;;;;;5070046;28;20743;-61
2022/11/03 10:10:58;;;;;;;7.90;1.50;;;14.50;99.90;;;;;;5070658;28;20229;-60
2022/11/03 10:13:30;;;;;;;8.37;1.20;;;14.50;1.40;;;;;;5070915;28;20627;-61
2022/11/03 10:15:57;;;;;;;4.70;1.23;;;14.40;53.00;;;;;;5070659;28;20258;-62
2022/11/03 10:18:24;;;;;;;3.33;1.30;;;14.40;36.20;;;;;;5070074;28;20223;-62
2022/11/03 10:20:51;;;;;;;4.40;1.40;;;14.50;1.00;;;;;;5070753;28;20274;-60
2022/11/03 10:23:17;;;;;;;9.73;1.63;;;14.40;1.00;;;;;;5070529;28;20266;-61
2022/11/03 10:25:45;;;;;;;2.57;1.17;;;14.40;1.00;;;;;;5070659;28;20622;-62
2022/11/03 10:28:22;;;;;;;4.67;1.13;;;14.40;1.00;;;;;;5069894;28;20220;-62
2022/11/03 10:30:51;;;;;;;10.50;1.67;;;14.50;1.00;;;;;;5070385;28;20209;-62
2022/11/03 10:33:32;;;;;;;5.67;1.80;;;14.50;1.00;;;;;;5069105;28;20211;-62
2022/11/03 10:36:00;;;;;;;7.17;1.67;;;14.60;1.00;;;;;;5070392;28;20208;-61
2022/11/03 10:38:30;;;;;;;5.63;1.37;;;14.60;1.00;;;;;;5070063;28;20209;-62
2022/11/03 10:41:08;;;;;;;7.17;1.83;;;14.60;1.00;;;;;;5070190;28;20225;-62
2022/11/03 10:43:37;;;;;;;7.67;1.40;;;14.70;1.00;;;;;;5070808;28;20212;-59
2022/11/03 10:46:11;;;;;;;5.20;1.60;;;14.70;99.90;;;;;;5070050;28;20296;-62
2022/11/03 10:48:38;;;;;;;3.40;1.20;;;14.80;99.90;;;;;;5073435;28;20204;-64
2022/11/03 10:51:05;;;;;;;3.43;1.30;;;14.80;1.00;;;;;;5073589;28;20221;-61
2022/11/03 10:53:32;;;;;;;4.50;1.30;;;14.80;99.90;;;;;;5074498;28;20580;-62
2022/11/03 10:55:59;;;;;;;4.23;1.70;;;14.70;99.90;;;;;;5073166;28;20208;-62
2022/11/03 10:58:26;;;;;;;4.07;1.27;;;14.70;99.90;;;;;;5074007;28;20216;-62
2022/11/03 11:00:54;;;;;;;6.87;1.60;;;14.70;99.90;;;;;;5073371;28;20229;-61
2022/11/03 11:03:21;;;;;;;4.77;1.33;;;14.70;99.90;;;;;;5074013;28;20205;-61
2022/11/03 11:05:48;;;;;;;3.47;1.30;;;14.80;99.90;;;;;;5073872;28;20232;-61
2022/11/03 11:08:23;;;;;;;3.93;1.13;;;14.70;99.90;;;;;;5072901;28;20291;-64
2022/11/03 11:10:50;;;;;;;3.37;1.10;;;14.80;99.90;;;;;;5073359;28;20200;-64
2022/11/03 11:13:28;;;;;;;6.53;1.20;;;14.80;99.90;;;;;;5073421;28;20300;-61
2022/11/03 11:15:57;;;;;;;4.50;1.30;;;14.90;99.90;;;;;;5073495;28;20612;-62
2022/11/03 11:19:11;;;;;;;3.40;1.30;;;14.70;99.90;;;;;;5072954;28;20629;-63
2022/11/03 11:22:01;;;;;;;4.43;1.50;;;14.80;99.90;;;;;;5073213;28;20316;-63
2022/11/03 11:24:56;;;;;;;3.50;1.70;;;14.80;99.90;;;;;;5073075;28;20205;-63
2022/11/03 11:27:55;;;;;;;4.50;1.43;;;14.90;99.90;;;;;;5073340;28;20759;-62
2022/11/03 11:31:01;;;;;;;4.23;1.80;;;15.10;99.90;;;;;;5072436;28;20685;-62
2022/11/03 11:33:31;;;;;;;8.20;1.70;;;15.30;99.90;;;;;;5073481;28;20204;-62
2022/11/03 11:36:22;;;;;;;3.83;1.30;;;15.50;7.60;;;;;;5072745;28;20201;-63
2022/11/03 11:39:10;;;;;;;3.73;1.27;;;15.70;20.90;;;;;;5073065;28;20205;-63
2022/11/03 11:42:19;;;;;;;7.17;1.60;;;15.80;1.00;;;;;;5072261;28;20268;-61
2022/11/03 11:44:52;;;;;;;4.20;1.33;;;15.90;1.00;;;;;;5071391;28;20240;-63
2022/11/03 11:47:43;;;;;;;5.00;1.47;;;16.00;1.00;;;;;;5072823;28;20212;-62
2022/11/03 11:50:20;;;;;;;6.43;1.50;;;16.10;99.90;;;;;;5072786;28;20197;-64
2022/11/03 11:52:50;;;;;;;3.70;1.03;;;16.20;1.00;;;;;;5072725;28;20232;-61
2022/11/03 11:55:19;;;;;;;7.90;1.40;;;15.90;1.00;;;;;;5073022;28;20216;-61
2022/11/03 11:57:47;;;;;;;2.80;1.20;;;15.70;1.00;;;;;;5071899;28;20209;-61
2022/11/03 12:00:21;;;;;;;3.43;1.47;;;15.60;1.00;;;;;;5073836;28;20228;-66
2022/11/03 12:02:48;;;;;;;5.07;1.50;;;15.70;1.00;;;;;;5074572;28;20298;-65
2022/11/03 12:05:22;;;;;;;4.87;1.50;;;15.70;1.00;;;;;;5073587;28;20212;-63
2022/11/03 12:07:49;;;;;;;4.40;1.77;;;15.70;1.00;;;;;;5072798;28;20209;-62
2022/11/03 12:10:18;;;;;;;3.90;1.40;;;15.70;1.00;;;;;;5072228;28;20201;-62
2022/11/03 12:12:45;;;;;;;3.60;1.57;;;15.70;1.00;;;;;;5072093;28;20741;-62
2022/11/03 12:15:49;;;;;;;2.83;1.20;;;15.60;1.00;;;;;;5072457;28;20235;-66
2022/11/03 12:18:29;;;;;;;3.80;1.53;;;15.60;99.90;;;;;;5072516;28;20283;-66
2022/11/03 12:23:38;;;;;;;6.87;1.50;;;15.10;1.00;;;;;;5058602;22;20241;-65
2022/11/03 12:26:05;;;;;;;5.57;1.80;;;15.20;1.00;;;;;;5031827;28;20229;-65
2022/11/03 12:28:36;;;;;;;3.57;1.13;;;15.10;1.00;;;;;;5032314;28;20256;-65
2022/11/03 12:31:03;;;;;;;3.80;1.33;;;15.10;1.00;;;;;;5031686;28;20218;-63
2022/11/03 12:33:30;;;;;;;2.83;1.00;;;15.10;1.00;;;;;;5032367;28;20673;-65
2022/11/03 12:35:57;;;;;;;5.53;1.23;;;15.10;1.00;;;;;;5031286;28;20911;-65
2022/11/03 12:38:24;;;;;;;3.87;1.57;;;15.10;1.00;;;;;;5032250;28;20583;-66
2022/11/03 12:43:20;;;;;;;3.30;1.40;;;15.20;1.00;;;;;;5030248;28;20222;-65
2022/11/03 12:45:46;;;;;;;3.13;1.30;;;15.30;1.00;;;;;;5032214;28;20294;-65
2022/11/03 12:48:13;;;;;;;3.23;1.47;;;15.40;1.00;;;;;;5031066;28;20221;-66
2022/11/03 12:50:40;;;;;;;5.27;1.03;;;15.40;1.00;;;;;;5032342;28;20202;-64
2022/11/03 12:53:07;;;;;;;7.57;1.40;;;15.40;1.00;;;;;;5051390;28;20731;-64
2022/11/03 12:55:34;;;;;;;2.77;1.70;;;15.60;1.00;;;;;;5051937;28;20260;-64
2022/11/03 12:58:02;;;;;;;2.33;1.30;;;15.70;1.00;;;;;;5051090;28;20209;-64
2022/11/03 13:00:30;;;;;;;4.13;1.10;;;15.80;1.00;;;;;;5051050;28;20256;-56
2022/11/03 13:02:56;;;;;;;4.23;1.30;;;15.60;1.00;;;;;;5051549;28;20256;-55
2022/11/03 13:05:24;;;;;;;5.13;1.20;;;15.60;1.00;;;;;;5051339;28;20209;-54
2022/11/03 13:07:51;;;;;;;3.43;1.30;;;15.40;1.00;;;;;;5051285;28;20205;-57
2022/11/03 13:10:18;;;;;;;4.27;1.53;;;15.30;1.00;;;;;;5049762;28;20205;-65
2022/11/03 13:12:45;;;;;;;2.97;1.20;;;15.10;1.00;;;;;;5051419;28;20225;-58
2022/11/03 13:15:14;;;;;;;3.97;1.40;;;15.00;1.00;;;;;;5050808;28;20300;-57
2022/11/03 13:17:43;;;;;;;3.83;1.57;;;15.00;1.00;;;;;;5051115;28;20260;-62
2022/11/03 13:20:13;;;;;;;4.77;1.30;;;15.10;1.00;;;;;;5050390;28;20247;-56
2022/11/03 13:22:40;;;;;;;4.80;1.40;;;15.10;1.00;;;;;;5051453;28;20356;-58
2022/11/03 13:25:07;;;;;;;4.00;1.50;;;14.90;1.00;;;;;;5051227;28;20814;-59
2022/11/03 13:27:34;;;;;;;6.17;1.60;;;14.70;1.00;;;;;;5050567;28;20624;-61